<?xml version="1.0" encoding="UTF-8" standalone="no" ?>
<gpx xmlns="http://www.topografix.com/GPX/1/1" xmlns:xsi="http://www.w3.org/2001/XMLSchema-instance" xsi:schemaLocation="http://www.topografix.com/GPX/1/1 http://www.topografix.com/GPX/1/1/gpx.xsd" version="1.1" creator="VisuGPX - https://www.visugpx.com">
  <metadata>
    <name>La Chapelle-de-Guinchay Cyclisme</name>
    <desc><![CDATA[Montée par la RD504 de la RD385 à la RD44]]></desc>
  </metadata>
  <trk>
    <name><![CDATA[La Chapelle-de-Guinchay Cyclisme]]></name>
    <trkseg>
      <trkpt lat="46.02195" lon="4.49962">
        <ele>339.20001220703</ele>
        <time>2019-07-26T07:10:15.000Z</time>
      </trkpt>
      <trkpt lat="46.02194" lon="4.49987">
        <ele>341.20001220703</ele>
        <time>2019-07-26T07:10:18.000Z</time>
      </trkpt>
      <trkpt lat="46.02195" lon="4.50022">
        <ele>344.20001220703</ele>
        <time>2019-07-26T07:10:23.000Z</time>
      </trkpt>
      <trkpt lat="46.02196" lon="4.50028">
        <ele>344.60000610352</ele>
        <time>2019-07-26T07:10:24.000Z</time>
      </trkpt>
      <trkpt lat="46.02198" lon="4.50041">
        <ele>345.20001220703</ele>
        <time>2019-07-26T07:10:26.000Z</time>
      </trkpt>
      <trkpt lat="46.02202" lon="4.50054">
        <ele>345.39999389648</ele>
        <time>2019-07-26T07:10:28.000Z</time>
      </trkpt>
      <trkpt lat="46.02206" lon="4.50066">
        <ele>345.39999389648</ele>
        <time>2019-07-26T07:10:30.000Z</time>
      </trkpt>
      <trkpt lat="46.02212" lon="4.50085">
        <ele>345.79998779297</ele>
        <time>2019-07-26T07:10:33.000Z</time>
      </trkpt>
      <trkpt lat="46.02216" lon="4.50097">
        <ele>345.79998779297</ele>
        <time>2019-07-26T07:10:35.000Z</time>
      </trkpt>
      <trkpt lat="46.02221" lon="4.50109">
        <ele>346</ele>
        <time>2019-07-26T07:10:37.000Z</time>
      </trkpt>
      <trkpt lat="46.02226" lon="4.50122">
        <ele>346.20001220703</ele>
        <time>2019-07-26T07:10:39.000Z</time>
      </trkpt>
      <trkpt lat="46.02232" lon="4.50141">
        <ele>347.79998779297</ele>
        <time>2019-07-26T07:10:42.000Z</time>
      </trkpt>
      <trkpt lat="46.02235" lon="4.50147">
        <ele>348.20001220703</ele>
        <time>2019-07-26T07:10:43.000Z</time>
      </trkpt>
      <trkpt lat="46.02237" lon="4.50153">
        <ele>348.79998779297</ele>
        <time>2019-07-26T07:10:44.000Z</time>
      </trkpt>
      <trkpt lat="46.02242" lon="4.50165">
        <ele>349.79998779297</ele>
        <time>2019-07-26T07:10:46.000Z</time>
      </trkpt>
      <trkpt lat="46.02257" lon="4.50207">
        <ele>352.20001220703</ele>
        <time>2019-07-26T07:10:53.000Z</time>
      </trkpt>
      <trkpt lat="46.02272" lon="4.50246">
        <ele>351.20001220703</ele>
        <time>2019-07-26T07:11:00.000Z</time>
      </trkpt>
      <trkpt lat="46.02276" lon="4.50257">
        <ele>351.79998779297</ele>
        <time>2019-07-26T07:11:02.000Z</time>
      </trkpt>
      <trkpt lat="46.02283" lon="4.50274">
        <ele>353</ele>
        <time>2019-07-26T07:11:05.000Z</time>
      </trkpt>
      <trkpt lat="46.02295" lon="4.50309">
        <ele>352.60000610352</ele>
        <time>2019-07-26T07:11:11.000Z</time>
      </trkpt>
      <trkpt lat="46.02299" lon="4.50321">
        <ele>352.20001220703</ele>
        <time>2019-07-26T07:11:13.000Z</time>
      </trkpt>
      <trkpt lat="46.02317" lon="4.50375">
        <ele>352.39999389648</ele>
        <time>2019-07-26T07:11:22.000Z</time>
      </trkpt>
      <trkpt lat="46.02321" lon="4.50386">
        <ele>353.60000610352</ele>
        <time>2019-07-26T07:11:24.000Z</time>
      </trkpt>
      <trkpt lat="46.0233" lon="4.50416">
        <ele>356.60000610352</ele>
        <time>2019-07-26T07:11:29.000Z</time>
      </trkpt>
      <trkpt lat="46.02332" lon="4.50421">
        <ele>357.20001220703</ele>
        <time>2019-07-26T07:11:30.000Z</time>
      </trkpt>
      <trkpt lat="46.02337" lon="4.50439">
        <ele>359</ele>
        <time>2019-07-26T07:11:33.000Z</time>
      </trkpt>
      <trkpt lat="46.02342" lon="4.5047">
        <ele>359.39999389648</ele>
        <time>2019-07-26T07:11:38.000Z</time>
      </trkpt>
      <trkpt lat="46.02342" lon="4.50476">
        <ele>359.20001220703</ele>
        <time>2019-07-26T07:11:39.000Z</time>
      </trkpt>
      <trkpt lat="46.02347" lon="4.50513">
        <ele>361.20001220703</ele>
        <time>2019-07-26T07:11:45.000Z</time>
      </trkpt>
      <trkpt lat="46.02348" lon="4.50518">
        <ele>361.60000610352</ele>
        <time>2019-07-26T07:11:46.000Z</time>
      </trkpt>
      <trkpt lat="46.02353" lon="4.50535">
        <ele>362.79998779297</ele>
        <time>2019-07-26T07:11:49.000Z</time>
      </trkpt>
      <trkpt lat="46.02357" lon="4.50546">
        <ele>362.39999389648</ele>
        <time>2019-07-26T07:11:51.000Z</time>
      </trkpt>
      <trkpt lat="46.02361" lon="4.50557">
        <ele>362</ele>
        <time>2019-07-26T07:11:53.000Z</time>
      </trkpt>
      <trkpt lat="46.0237" lon="4.50572">
        <ele>361.20001220703</ele>
        <time>2019-07-26T07:11:56.000Z</time>
      </trkpt>
      <trkpt lat="46.02389" lon="4.5061">
        <ele>359.20001220703</ele>
        <time>2019-07-26T07:12:03.000Z</time>
      </trkpt>
      <trkpt lat="46.02391" lon="4.50617">
        <ele>359.20001220703</ele>
        <time>2019-07-26T07:12:04.000Z</time>
      </trkpt>
      <trkpt lat="46.02399" lon="4.50648">
        <ele>361.60000610352</ele>
        <time>2019-07-26T07:12:09.000Z</time>
      </trkpt>
      <trkpt lat="46.024" lon="4.50654">
        <ele>362</ele>
        <time>2019-07-26T07:12:10.000Z</time>
      </trkpt>
      <trkpt lat="46.02401" lon="4.5066">
        <ele>362.39999389648</ele>
        <time>2019-07-26T07:12:11.000Z</time>
      </trkpt>
      <trkpt lat="46.02403" lon="4.50665">
        <ele>363</ele>
        <time>2019-07-26T07:12:12.000Z</time>
      </trkpt>
      <trkpt lat="46.02405" lon="4.50678">
        <ele>364</ele>
        <time>2019-07-26T07:12:14.000Z</time>
      </trkpt>
      <trkpt lat="46.02406" lon="4.50684">
        <ele>364.39999389648</ele>
        <time>2019-07-26T07:12:15.000Z</time>
      </trkpt>
      <trkpt lat="46.02409" lon="4.50696">
        <ele>365.39999389648</ele>
        <time>2019-07-26T07:12:17.000Z</time>
      </trkpt>
      <trkpt lat="46.02424" lon="4.50734">
        <ele>363.39999389648</ele>
        <time>2019-07-26T07:12:24.000Z</time>
      </trkpt>
      <trkpt lat="46.02441" lon="4.50774">
        <ele>364</ele>
        <time>2019-07-26T07:12:31.000Z</time>
      </trkpt>
      <trkpt lat="46.02446" lon="4.50785">
        <ele>364</ele>
        <time>2019-07-26T07:12:33.000Z</time>
      </trkpt>
      <trkpt lat="46.02449" lon="4.50797">
        <ele>364.20001220703</ele>
        <time>2019-07-26T07:12:35.000Z</time>
      </trkpt>
      <trkpt lat="46.0245" lon="4.50804">
        <ele>364.20001220703</ele>
        <time>2019-07-26T07:12:36.000Z</time>
      </trkpt>
      <trkpt lat="46.02454" lon="4.50822">
        <ele>364.39999389648</ele>
        <time>2019-07-26T07:12:39.000Z</time>
      </trkpt>
      <trkpt lat="46.02455" lon="4.50841">
        <ele>365.20001220703</ele>
        <time>2019-07-26T07:12:42.000Z</time>
      </trkpt>
      <trkpt lat="46.02456" lon="4.5086">
        <ele>367.39999389648</ele>
        <time>2019-07-26T07:12:45.000Z</time>
      </trkpt>
      <trkpt lat="46.02456" lon="4.50874">
        <ele>368.39999389648</ele>
        <time>2019-07-26T07:12:47.000Z</time>
      </trkpt>
      <trkpt lat="46.02458" lon="4.50911">
        <ele>368.79998779297</ele>
        <time>2019-07-26T07:12:53.000Z</time>
      </trkpt>
      <trkpt lat="46.02458" lon="4.50924">
        <ele>369</ele>
        <time>2019-07-26T07:12:55.000Z</time>
      </trkpt>
      <trkpt lat="46.02459" lon="4.5093">
        <ele>369</ele>
        <time>2019-07-26T07:12:56.000Z</time>
      </trkpt>
      <trkpt lat="46.0246" lon="4.50943">
        <ele>370.20001220703</ele>
        <time>2019-07-26T07:12:58.000Z</time>
      </trkpt>
      <trkpt lat="46.0246" lon="4.50955">
        <ele>371.20001220703</ele>
        <time>2019-07-26T07:13:00.000Z</time>
      </trkpt>
      <trkpt lat="46.0246" lon="4.50967">
        <ele>371.20001220703</ele>
        <time>2019-07-26T07:13:02.000Z</time>
      </trkpt>
      <trkpt lat="46.02461" lon="4.50979">
        <ele>371</ele>
        <time>2019-07-26T07:13:04.000Z</time>
      </trkpt>
      <trkpt lat="46.02461" lon="4.50992">
        <ele>370.79998779297</ele>
        <time>2019-07-26T07:13:06.000Z</time>
      </trkpt>
      <trkpt lat="46.02462" lon="4.50998">
        <ele>370.39999389648</ele>
        <time>2019-07-26T07:13:07.000Z</time>
      </trkpt>
      <trkpt lat="46.02463" lon="4.51004">
        <ele>370</ele>
        <time>2019-07-26T07:13:08.000Z</time>
      </trkpt>
      <trkpt lat="46.02465" lon="4.51017">
        <ele>369.20001220703</ele>
        <time>2019-07-26T07:13:10.000Z</time>
      </trkpt>
      <trkpt lat="46.02467" lon="4.51029">
        <ele>368.79998779297</ele>
        <time>2019-07-26T07:13:12.000Z</time>
      </trkpt>
      <trkpt lat="46.02468" lon="4.51042">
        <ele>369</ele>
        <time>2019-07-26T07:13:14.000Z</time>
      </trkpt>
      <trkpt lat="46.02469" lon="4.51048">
        <ele>369.20001220703</ele>
        <time>2019-07-26T07:13:15.000Z</time>
      </trkpt>
      <trkpt lat="46.0247" lon="4.51055">
        <ele>369.39999389648</ele>
        <time>2019-07-26T07:13:16.000Z</time>
      </trkpt>
      <trkpt lat="46.02471" lon="4.51067">
        <ele>369.60000610352</ele>
        <time>2019-07-26T07:13:18.000Z</time>
      </trkpt>
      <trkpt lat="46.02472" lon="4.5108">
        <ele>370</ele>
        <time>2019-07-26T07:13:20.000Z</time>
      </trkpt>
      <trkpt lat="46.02473" lon="4.51092">
        <ele>370.20001220703</ele>
        <time>2019-07-26T07:13:22.000Z</time>
      </trkpt>
      <trkpt lat="46.02474" lon="4.51132">
        <ele>372</ele>
        <time>2019-07-26T07:13:28.000Z</time>
      </trkpt>
      <trkpt lat="46.02475" lon="4.51138">
        <ele>372.20001220703</ele>
        <time>2019-07-26T07:13:29.000Z</time>
      </trkpt>
      <trkpt lat="46.02476" lon="4.51158">
        <ele>372.39999389648</ele>
        <time>2019-07-26T07:13:32.000Z</time>
      </trkpt>
      <trkpt lat="46.02477" lon="4.51164">
        <ele>372.79998779297</ele>
        <time>2019-07-26T07:13:33.000Z</time>
      </trkpt>
      <trkpt lat="46.02478" lon="4.51191">
        <ele>373.79998779297</ele>
        <time>2019-07-26T07:13:37.000Z</time>
      </trkpt>
      <trkpt lat="46.02479" lon="4.51205">
        <ele>374.20001220703</ele>
        <time>2019-07-26T07:13:39.000Z</time>
      </trkpt>
      <trkpt lat="46.02479" lon="4.51212">
        <ele>374.39999389648</ele>
        <time>2019-07-26T07:13:40.000Z</time>
      </trkpt>
      <trkpt lat="46.0248" lon="4.51219">
        <ele>374.60000610352</ele>
        <time>2019-07-26T07:13:41.000Z</time>
      </trkpt>
      <trkpt lat="46.02483" lon="4.51249">
        <ele>375.20001220703</ele>
        <time>2019-07-26T07:13:45.000Z</time>
      </trkpt>
      <trkpt lat="46.02483" lon="4.51256">
        <ele>375.39999389648</ele>
        <time>2019-07-26T07:13:46.000Z</time>
      </trkpt>
      <trkpt lat="46.02484" lon="4.51264">
        <ele>375.60000610352</ele>
        <time>2019-07-26T07:13:47.000Z</time>
      </trkpt>
      <trkpt lat="46.0249" lon="4.51285">
        <ele>376.20001220703</ele>
        <time>2019-07-26T07:13:50.000Z</time>
      </trkpt>
      <trkpt lat="46.02496" lon="4.51298">
        <ele>375.79998779297</ele>
        <time>2019-07-26T07:13:52.000Z</time>
      </trkpt>
      <trkpt lat="46.02504" lon="4.51309">
        <ele>375.39999389648</ele>
        <time>2019-07-26T07:13:54.000Z</time>
      </trkpt>
      <trkpt lat="46.02509" lon="4.51313">
        <ele>375.39999389648</ele>
        <time>2019-07-26T07:13:55.000Z</time>
      </trkpt>
      <trkpt lat="46.02517" lon="4.5132">
        <ele>375.20001220703</ele>
        <time>2019-07-26T07:13:57.000Z</time>
      </trkpt>
      <trkpt lat="46.02535" lon="4.51329">
        <ele>375</ele>
        <time>2019-07-26T07:14:01.000Z</time>
      </trkpt>
      <trkpt lat="46.0254" lon="4.5133">
        <ele>375</ele>
        <time>2019-07-26T07:14:02.000Z</time>
      </trkpt>
      <trkpt lat="46.02567" lon="4.51331">
        <ele>376.20001220703</ele>
        <time>2019-07-26T07:14:08.000Z</time>
      </trkpt>
      <trkpt lat="46.02596" lon="4.5133">
        <ele>379.39999389648</ele>
        <time>2019-07-26T07:14:15.000Z</time>
      </trkpt>
      <trkpt lat="46.026" lon="4.5133">
        <ele>379.79998779297</ele>
        <time>2019-07-26T07:14:16.000Z</time>
      </trkpt>
      <trkpt lat="46.02619" lon="4.5133">
        <ele>381.60000610352</ele>
        <time>2019-07-26T07:14:21.000Z</time>
      </trkpt>
      <trkpt lat="46.02653" lon="4.51333">
        <ele>385</ele>
        <time>2019-07-26T07:14:30.000Z</time>
      </trkpt>
      <trkpt lat="46.02675" lon="4.5134">
        <ele>387.20001220703</ele>
        <time>2019-07-26T07:14:36.000Z</time>
      </trkpt>
      <trkpt lat="46.02678" lon="4.51341">
        <ele>387.60000610352</ele>
        <time>2019-07-26T07:14:37.000Z</time>
      </trkpt>
      <trkpt lat="46.02699" lon="4.51351">
        <ele>389.60000610352</ele>
        <time>2019-07-26T07:14:43.000Z</time>
      </trkpt>
      <trkpt lat="46.02715" lon="4.51361">
        <ele>391</ele>
        <time>2019-07-26T07:14:47.000Z</time>
      </trkpt>
      <trkpt lat="46.02718" lon="4.51363">
        <ele>391.39999389648</ele>
        <time>2019-07-26T07:14:48.000Z</time>
      </trkpt>
      <trkpt lat="46.02741" lon="4.51383">
        <ele>392.60000610352</ele>
        <time>2019-07-26T07:14:55.000Z</time>
      </trkpt>
      <trkpt lat="46.02755" lon="4.51393">
        <ele>393.20001220703</ele>
        <time>2019-07-26T07:14:59.000Z</time>
      </trkpt>
      <trkpt lat="46.02765" lon="4.514">
        <ele>393.60000610352</ele>
        <time>2019-07-26T07:15:02.000Z</time>
      </trkpt>
      <trkpt lat="46.02783" lon="4.51409">
        <ele>394.60000610352</ele>
        <time>2019-07-26T07:15:07.000Z</time>
      </trkpt>
      <trkpt lat="46.02787" lon="4.5141">
        <ele>394.79998779297</ele>
        <time>2019-07-26T07:15:08.000Z</time>
      </trkpt>
      <trkpt lat="46.02807" lon="4.51414">
        <ele>396.20001220703</ele>
        <time>2019-07-26T07:15:13.000Z</time>
      </trkpt>
      <trkpt lat="46.02815" lon="4.51416">
        <ele>396.39999389648</ele>
        <time>2019-07-26T07:15:15.000Z</time>
      </trkpt>
      <trkpt lat="46.02831" lon="4.51421">
        <ele>396.60000610352</ele>
        <time>2019-07-26T07:15:19.000Z</time>
      </trkpt>
      <trkpt lat="46.02835" lon="4.51424">
        <ele>396.60000610352</ele>
        <time>2019-07-26T07:15:20.000Z</time>
      </trkpt>
      <trkpt lat="46.02843" lon="4.51429">
        <ele>396.60000610352</ele>
        <time>2019-07-26T07:15:22.000Z</time>
      </trkpt>
      <trkpt lat="46.02846" lon="4.51433">
        <ele>396.60000610352</ele>
        <time>2019-07-26T07:15:23.000Z</time>
      </trkpt>
      <trkpt lat="46.02858" lon="4.51446">
        <ele>396.39999389648</ele>
        <time>2019-07-26T07:15:27.000Z</time>
      </trkpt>
      <trkpt lat="46.0286" lon="4.5145">
        <ele>396.20001220703</ele>
        <time>2019-07-26T07:15:28.000Z</time>
      </trkpt>
      <trkpt lat="46.02869" lon="4.51462">
        <ele>396.20001220703</ele>
        <time>2019-07-26T07:15:31.000Z</time>
      </trkpt>
      <trkpt lat="46.02879" lon="4.51475">
        <ele>396.39999389648</ele>
        <time>2019-07-26T07:15:35.000Z</time>
      </trkpt>
      <trkpt lat="46.02881" lon="4.51478">
        <ele>396.39999389648</ele>
        <time>2019-07-26T07:15:36.000Z</time>
      </trkpt>
      <trkpt lat="46.02901" lon="4.51497">
        <ele>397.20001220703</ele>
        <time>2019-07-26T07:15:43.000Z</time>
      </trkpt>
      <trkpt lat="46.02904" lon="4.515">
        <ele>397.39999389648</ele>
        <time>2019-07-26T07:15:44.000Z</time>
      </trkpt>
      <trkpt lat="46.02919" lon="4.5151">
        <ele>398.60000610352</ele>
        <time>2019-07-26T07:15:49.000Z</time>
      </trkpt>
      <trkpt lat="46.02925" lon="4.51515">
        <ele>399</ele>
        <time>2019-07-26T07:15:51.000Z</time>
      </trkpt>
      <trkpt lat="46.02946" lon="4.51529">
        <ele>400.60000610352</ele>
        <time>2019-07-26T07:15:58.000Z</time>
      </trkpt>
      <trkpt lat="46.02961" lon="4.51539">
        <ele>401.79998779297</ele>
        <time>2019-07-26T07:16:03.000Z</time>
      </trkpt>
      <trkpt lat="46.02967" lon="4.51543">
        <ele>402.20001220703</ele>
        <time>2019-07-26T07:16:05.000Z</time>
      </trkpt>
      <trkpt lat="46.02983" lon="4.51555">
        <ele>403.20001220703</ele>
        <time>2019-07-26T07:16:10.000Z</time>
      </trkpt>
      <trkpt lat="46.02991" lon="4.51561">
        <ele>403.60000610352</ele>
        <time>2019-07-26T07:16:13.000Z</time>
      </trkpt>
      <trkpt lat="46.03007" lon="4.51573">
        <ele>404.39999389648</ele>
        <time>2019-07-26T07:16:18.000Z</time>
      </trkpt>
      <trkpt lat="46.03011" lon="4.51575">
        <ele>404.60000610352</ele>
        <time>2019-07-26T07:16:19.000Z</time>
      </trkpt>
      <trkpt lat="46.03021" lon="4.5158">
        <ele>405.20001220703</ele>
        <time>2019-07-26T07:16:22.000Z</time>
      </trkpt>
      <trkpt lat="46.03034" lon="4.51586">
        <ele>406.39999389648</ele>
        <time>2019-07-26T07:16:26.000Z</time>
      </trkpt>
      <trkpt lat="46.03049" lon="4.51588">
        <ele>408.20001220703</ele>
        <time>2019-07-26T07:16:31.000Z</time>
      </trkpt>
      <trkpt lat="46.03078" lon="4.51589">
        <ele>409.60000610352</ele>
        <time>2019-07-26T07:16:39.000Z</time>
      </trkpt>
      <trkpt lat="46.03099" lon="4.51585">
        <ele>410.20001220703</ele>
        <time>2019-07-26T07:16:45.000Z</time>
      </trkpt>
      <trkpt lat="46.03125" lon="4.51575">
        <ele>412</ele>
        <time>2019-07-26T07:16:53.000Z</time>
      </trkpt>
      <trkpt lat="46.03132" lon="4.51572">
        <ele>412.39999389648</ele>
        <time>2019-07-26T07:16:55.000Z</time>
      </trkpt>
      <trkpt lat="46.03155" lon="4.51563">
        <ele>414</ele>
        <time>2019-07-26T07:17:02.000Z</time>
      </trkpt>
      <trkpt lat="46.03181" lon="4.51549">
        <ele>415.20001220703</ele>
        <time>2019-07-26T07:17:10.000Z</time>
      </trkpt>
      <trkpt lat="46.03187" lon="4.51546">
        <ele>415.39999389648</ele>
        <time>2019-07-26T07:17:12.000Z</time>
      </trkpt>
      <trkpt lat="46.03198" lon="4.51543">
        <ele>415.60000610352</ele>
        <time>2019-07-26T07:17:15.000Z</time>
      </trkpt>
      <trkpt lat="46.03206" lon="4.51539">
        <ele>415.79998779297</ele>
        <time>2019-07-26T07:17:17.000Z</time>
      </trkpt>
      <trkpt lat="46.03213" lon="4.51537">
        <ele>415.79998779297</ele>
        <time>2019-07-26T07:17:19.000Z</time>
      </trkpt>
      <trkpt lat="46.03222" lon="4.51533">
        <ele>416</ele>
        <time>2019-07-26T07:17:21.000Z</time>
      </trkpt>
      <trkpt lat="46.03225" lon="4.51532">
        <ele>416.20001220703</ele>
        <time>2019-07-26T07:17:22.000Z</time>
      </trkpt>
      <trkpt lat="46.03233" lon="4.5153">
        <ele>417.20001220703</ele>
        <time>2019-07-26T07:17:24.000Z</time>
      </trkpt>
      <trkpt lat="46.03241" lon="4.51527">
        <ele>418.20001220703</ele>
        <time>2019-07-26T07:17:26.000Z</time>
      </trkpt>
      <trkpt lat="46.03245" lon="4.51526">
        <ele>418.79998779297</ele>
        <time>2019-07-26T07:17:27.000Z</time>
      </trkpt>
      <trkpt lat="46.03249" lon="4.51525">
        <ele>419.20001220703</ele>
        <time>2019-07-26T07:17:28.000Z</time>
      </trkpt>
      <trkpt lat="46.0326" lon="4.51523">
        <ele>420.39999389648</ele>
        <time>2019-07-26T07:17:31.000Z</time>
      </trkpt>
      <trkpt lat="46.03274" lon="4.5152">
        <ele>422</ele>
        <time>2019-07-26T07:17:35.000Z</time>
      </trkpt>
      <trkpt lat="46.03277" lon="4.5152">
        <ele>422.39999389648</ele>
        <time>2019-07-26T07:17:36.000Z</time>
      </trkpt>
      <trkpt lat="46.03292" lon="4.51521">
        <ele>423.39999389648</ele>
        <time>2019-07-26T07:17:40.000Z</time>
      </trkpt>
      <trkpt lat="46.033" lon="4.51521">
        <ele>424</ele>
        <time>2019-07-26T07:17:42.000Z</time>
      </trkpt>
      <trkpt lat="46.03308" lon="4.51523">
        <ele>424.39999389648</ele>
        <time>2019-07-26T07:17:44.000Z</time>
      </trkpt>
      <trkpt lat="46.03322" lon="4.51526">
        <ele>424.20001220703</ele>
        <time>2019-07-26T07:17:48.000Z</time>
      </trkpt>
      <trkpt lat="46.03329" lon="4.51528">
        <ele>424.20001220703</ele>
        <time>2019-07-26T07:17:50.000Z</time>
      </trkpt>
      <trkpt lat="46.03336" lon="4.51529">
        <ele>424</ele>
        <time>2019-07-26T07:17:52.000Z</time>
      </trkpt>
      <trkpt lat="46.03357" lon="4.51534">
        <ele>423.60000610352</ele>
        <time>2019-07-26T07:17:58.000Z</time>
      </trkpt>
      <trkpt lat="46.03367" lon="4.51538">
        <ele>423.79998779297</ele>
        <time>2019-07-26T07:18:01.000Z</time>
      </trkpt>
      <trkpt lat="46.03384" lon="4.51546">
        <ele>424.39999389648</ele>
        <time>2019-07-26T07:18:06.000Z</time>
      </trkpt>
      <trkpt lat="46.03393" lon="4.51553">
        <ele>424.79998779297</ele>
        <time>2019-07-26T07:18:09.000Z</time>
      </trkpt>
      <trkpt lat="46.03401" lon="4.51563">
        <ele>426.79998779297</ele>
        <time>2019-07-26T07:18:12.000Z</time>
      </trkpt>
      <trkpt lat="46.03403" lon="4.51566">
        <ele>427.60000610352</ele>
        <time>2019-07-26T07:18:13.000Z</time>
      </trkpt>
      <trkpt lat="46.03415" lon="4.51583">
        <ele>430.60000610352</ele>
        <time>2019-07-26T07:18:18.000Z</time>
      </trkpt>
      <trkpt lat="46.0342" lon="4.51591">
        <ele>432</ele>
        <time>2019-07-26T07:18:20.000Z</time>
      </trkpt>
      <trkpt lat="46.03425" lon="4.51598">
        <ele>433.39999389648</ele>
        <time>2019-07-26T07:18:22.000Z</time>
      </trkpt>
      <trkpt lat="46.03435" lon="4.51611">
        <ele>436</ele>
        <time>2019-07-26T07:18:26.000Z</time>
      </trkpt>
      <trkpt lat="46.03452" lon="4.5163">
        <ele>437.79998779297</ele>
        <time>2019-07-26T07:18:32.000Z</time>
      </trkpt>
      <trkpt lat="46.03463" lon="4.51642">
        <ele>438.60000610352</ele>
        <time>2019-07-26T07:18:36.000Z</time>
      </trkpt>
      <trkpt lat="46.03482" lon="4.51661">
        <ele>439.79998779297</ele>
        <time>2019-07-26T07:18:43.000Z</time>
      </trkpt>
      <trkpt lat="46.03503" lon="4.51681">
        <ele>440.79998779297</ele>
        <time>2019-07-26T07:18:51.000Z</time>
      </trkpt>
      <trkpt lat="46.03525" lon="4.51703">
        <ele>441.60000610352</ele>
        <time>2019-07-26T07:18:59.000Z</time>
      </trkpt>
      <trkpt lat="46.0354" lon="4.51716">
        <ele>442.39999389648</ele>
        <time>2019-07-26T07:19:04.000Z</time>
      </trkpt>
      <trkpt lat="46.03545" lon="4.51721">
        <ele>442.79998779297</ele>
        <time>2019-07-26T07:19:06.000Z</time>
      </trkpt>
      <trkpt lat="46.03554" lon="4.51727">
        <ele>443.60000610352</ele>
        <time>2019-07-26T07:19:09.000Z</time>
      </trkpt>
      <trkpt lat="46.03564" lon="4.51732">
        <ele>444.39999389648</ele>
        <time>2019-07-26T07:19:12.000Z</time>
      </trkpt>
      <trkpt lat="46.03567" lon="4.51734">
        <ele>444.39999389648</ele>
        <time>2019-07-26T07:19:13.000Z</time>
      </trkpt>
      <trkpt lat="46.0358" lon="4.51742">
        <ele>444.60000610352</ele>
        <time>2019-07-26T07:19:17.000Z</time>
      </trkpt>
      <trkpt lat="46.03587" lon="4.51746">
        <ele>444.79998779297</ele>
        <time>2019-07-26T07:19:19.000Z</time>
      </trkpt>
      <trkpt lat="46.03591" lon="4.51748">
        <ele>444.79998779297</ele>
        <time>2019-07-26T07:19:20.000Z</time>
      </trkpt>
      <trkpt lat="46.03601" lon="4.51757">
        <ele>444.60000610352</ele>
        <time>2019-07-26T07:19:23.000Z</time>
      </trkpt>
      <trkpt lat="46.0361" lon="4.51769">
        <ele>443.79998779297</ele>
        <time>2019-07-26T07:19:26.000Z</time>
      </trkpt>
      <trkpt lat="46.03613" lon="4.51777">
        <ele>443.20001220703</ele>
        <time>2019-07-26T07:19:28.000Z</time>
      </trkpt>
      <trkpt lat="46.03618" lon="4.51789">
        <ele>443</ele>
        <time>2019-07-26T07:19:31.000Z</time>
      </trkpt>
      <trkpt lat="46.03619" lon="4.51794">
        <ele>443.20001220703</ele>
        <time>2019-07-26T07:19:32.000Z</time>
      </trkpt>
      <trkpt lat="46.03621" lon="4.51803">
        <ele>443.79998779297</ele>
        <time>2019-07-26T07:19:34.000Z</time>
      </trkpt>
      <trkpt lat="46.03624" lon="4.51817">
        <ele>444.79998779297</ele>
        <time>2019-07-26T07:19:37.000Z</time>
      </trkpt>
      <trkpt lat="46.03625" lon="4.51826">
        <ele>445.39999389648</ele>
        <time>2019-07-26T07:19:39.000Z</time>
      </trkpt>
      <trkpt lat="46.03625" lon="4.51831">
        <ele>445.60000610352</ele>
        <time>2019-07-26T07:19:40.000Z</time>
      </trkpt>
      <trkpt lat="46.03627" lon="4.51844">
        <ele>446.39999389648</ele>
        <time>2019-07-26T07:19:43.000Z</time>
      </trkpt>
      <trkpt lat="46.03628" lon="4.51862">
        <ele>448</ele>
        <time>2019-07-26T07:19:47.000Z</time>
      </trkpt>
      <trkpt lat="46.0363" lon="4.51867">
        <ele>448.60000610352</ele>
        <time>2019-07-26T07:19:48.000Z</time>
      </trkpt>
      <trkpt lat="46.03632" lon="4.51877">
        <ele>449.60000610352</ele>
        <time>2019-07-26T07:19:50.000Z</time>
      </trkpt>
      <trkpt lat="46.03633" lon="4.51881">
        <ele>450.20001220703</ele>
        <time>2019-07-26T07:19:51.000Z</time>
      </trkpt>
      <trkpt lat="46.03634" lon="4.51885">
        <ele>450.60000610352</ele>
        <time>2019-07-26T07:19:52.000Z</time>
      </trkpt>
      <trkpt lat="46.03636" lon="4.519">
        <ele>452.39999389648</ele>
        <time>2019-07-26T07:19:55.000Z</time>
      </trkpt>
      <trkpt lat="46.03636" lon="4.51904">
        <ele>452.79998779297</ele>
        <time>2019-07-26T07:19:56.000Z</time>
      </trkpt>
      <trkpt lat="46.03638" lon="4.51914">
        <ele>453.79998779297</ele>
        <time>2019-07-26T07:19:58.000Z</time>
      </trkpt>
      <trkpt lat="46.03636" lon="4.51928">
        <ele>455.39999389648</ele>
        <time>2019-07-26T07:20:01.000Z</time>
      </trkpt>
      <trkpt lat="46.03626" lon="4.5196">
        <ele>459.20001220703</ele>
        <time>2019-07-26T07:20:08.000Z</time>
      </trkpt>
      <trkpt lat="46.03612" lon="4.51971">
        <ele>460.39999389648</ele>
        <time>2019-07-26T07:20:13.000Z</time>
      </trkpt>
      <trkpt lat="46.03598" lon="4.5196">
        <ele>458.79998779297</ele>
        <time>2019-07-26T07:20:17.000Z</time>
      </trkpt>
      <trkpt lat="46.03592" lon="4.51942">
        <ele>456.20001220703</ele>
        <time>2019-07-26T07:20:21.000Z</time>
      </trkpt>
      <trkpt lat="46.03586" lon="4.51907">
        <ele>451.60000610352</ele>
        <time>2019-07-26T07:20:28.000Z</time>
      </trkpt>
      <trkpt lat="46.03585" lon="4.51902">
        <ele>450.79998779297</ele>
        <time>2019-07-26T07:20:29.000Z</time>
      </trkpt>
      <trkpt lat="46.03574" lon="4.51875">
        <ele>447.39999389648</ele>
        <time>2019-07-26T07:20:35.000Z</time>
      </trkpt>
      <trkpt lat="46.03561" lon="4.51849">
        <ele>444.20001220703</ele>
        <time>2019-07-26T07:20:42.000Z</time>
      </trkpt>
      <trkpt lat="46.03547" lon="4.51836">
        <ele>442.60000610352</ele>
        <time>2019-07-26T07:20:47.000Z</time>
      </trkpt>
      <trkpt lat="46.03537" lon="4.51829">
        <ele>442</ele>
        <time>2019-07-26T07:20:50.000Z</time>
      </trkpt>
      <trkpt lat="46.03524" lon="4.51822">
        <ele>441.20001220703</ele>
        <time>2019-07-26T07:20:54.000Z</time>
      </trkpt>
      <trkpt lat="46.03521" lon="4.5182">
        <ele>441</ele>
        <time>2019-07-26T07:20:55.000Z</time>
      </trkpt>
      <trkpt lat="46.03511" lon="4.51815">
        <ele>440.39999389648</ele>
        <time>2019-07-26T07:20:58.000Z</time>
      </trkpt>
      <trkpt lat="46.03494" lon="4.51809">
        <ele>441.60000610352</ele>
        <time>2019-07-26T07:21:03.000Z</time>
      </trkpt>
      <trkpt lat="46.03487" lon="4.51807">
        <ele>442.39999389648</ele>
        <time>2019-07-26T07:21:05.000Z</time>
      </trkpt>
      <trkpt lat="46.03472" lon="4.518">
        <ele>443.60000610352</ele>
        <time>2019-07-26T07:21:10.000Z</time>
      </trkpt>
      <trkpt lat="46.03468" lon="4.51799">
        <ele>443.79998779297</ele>
        <time>2019-07-26T07:21:11.000Z</time>
      </trkpt>
      <trkpt lat="46.03449" lon="4.5179">
        <ele>444.20001220703</ele>
        <time>2019-07-26T07:21:17.000Z</time>
      </trkpt>
      <trkpt lat="46.03429" lon="4.5178">
        <ele>444.79998779297</ele>
        <time>2019-07-26T07:21:23.000Z</time>
      </trkpt>
      <trkpt lat="46.03426" lon="4.51779">
        <ele>445</ele>
        <time>2019-07-26T07:21:24.000Z</time>
      </trkpt>
      <trkpt lat="46.03408" lon="4.51768">
        <ele>445.39999389648</ele>
        <time>2019-07-26T07:21:30.000Z</time>
      </trkpt>
      <trkpt lat="46.03382" lon="4.51755">
        <ele>445.60000610352</ele>
        <time>2019-07-26T07:21:38.000Z</time>
      </trkpt>
      <trkpt lat="46.03366" lon="4.51746">
        <ele>445.20001220703</ele>
        <time>2019-07-26T07:21:43.000Z</time>
      </trkpt>
      <trkpt lat="46.03357" lon="4.51741">
        <ele>445</ele>
        <time>2019-07-26T07:21:46.000Z</time>
      </trkpt>
      <trkpt lat="46.03332" lon="4.51737">
        <ele>447.39999389648</ele>
        <time>2019-07-26T07:21:53.000Z</time>
      </trkpt>
      <trkpt lat="46.03307" lon="4.51741">
        <ele>453</ele>
        <time>2019-07-26T07:22:00.000Z</time>
      </trkpt>
      <trkpt lat="46.03304" lon="4.51742">
        <ele>453.20001220703</ele>
        <time>2019-07-26T07:22:01.000Z</time>
      </trkpt>
      <trkpt lat="46.03277" lon="4.51754">
        <ele>455.60000610352</ele>
        <time>2019-07-26T07:22:09.000Z</time>
      </trkpt>
      <trkpt lat="46.03251" lon="4.51769">
        <ele>459.20001220703</ele>
        <time>2019-07-26T07:22:17.000Z</time>
      </trkpt>
      <trkpt lat="46.03246" lon="4.51773">
        <ele>460.60000610352</ele>
        <time>2019-07-26T07:22:19.000Z</time>
      </trkpt>
      <trkpt lat="46.03231" lon="4.51786">
        <ele>464</ele>
        <time>2019-07-26T07:22:24.000Z</time>
      </trkpt>
      <trkpt lat="46.03209" lon="4.51803">
        <ele>465.20001220703</ele>
        <time>2019-07-26T07:22:31.000Z</time>
      </trkpt>
      <trkpt lat="46.03206" lon="4.51806">
        <ele>465.39999389648</ele>
        <time>2019-07-26T07:22:32.000Z</time>
      </trkpt>
      <trkpt lat="46.03181" lon="4.51825">
        <ele>466</ele>
        <time>2019-07-26T07:22:40.000Z</time>
      </trkpt>
      <trkpt lat="46.03179" lon="4.51828">
        <ele>466.60000610352</ele>
        <time>2019-07-26T07:22:41.000Z</time>
      </trkpt>
      <trkpt lat="46.03171" lon="4.51835">
        <ele>468.20001220703</ele>
        <time>2019-07-26T07:22:44.000Z</time>
      </trkpt>
      <trkpt lat="46.03168" lon="4.51837">
        <ele>468.60000610352</ele>
        <time>2019-07-26T07:22:45.000Z</time>
      </trkpt>
      <trkpt lat="46.03146" lon="4.51852">
        <ele>470.79998779297</ele>
        <time>2019-07-26T07:22:52.000Z</time>
      </trkpt>
      <trkpt lat="46.0312" lon="4.51864">
        <ele>471.39999389648</ele>
        <time>2019-07-26T07:23:00.000Z</time>
      </trkpt>
      <trkpt lat="46.03098" lon="4.51871">
        <ele>470.39999389648</ele>
        <time>2019-07-26T07:23:07.000Z</time>
      </trkpt>
      <trkpt lat="46.03075" lon="4.51879">
        <ele>469.39999389648</ele>
        <time>2019-07-26T07:23:14.000Z</time>
      </trkpt>
      <trkpt lat="46.03067" lon="4.51882">
        <ele>469</ele>
        <time>2019-07-26T07:23:16.000Z</time>
      </trkpt>
      <trkpt lat="46.03059" lon="4.51884">
        <ele>468.20001220703</ele>
        <time>2019-07-26T07:23:18.000Z</time>
      </trkpt>
      <trkpt lat="46.03051" lon="4.51887">
        <ele>468.60000610352</ele>
        <time>2019-07-26T07:23:20.000Z</time>
      </trkpt>
      <trkpt lat="46.03047" lon="4.51888">
        <ele>468.79998779297</ele>
        <time>2019-07-26T07:23:21.000Z</time>
      </trkpt>
      <trkpt lat="46.03042" lon="4.5189">
        <ele>469</ele>
        <time>2019-07-26T07:23:22.000Z</time>
      </trkpt>
      <trkpt lat="46.03037" lon="4.51892">
        <ele>469.20001220703</ele>
        <time>2019-07-26T07:23:23.000Z</time>
      </trkpt>
      <trkpt lat="46.03033" lon="4.51895">
        <ele>469.79998779297</ele>
        <time>2019-07-26T07:23:24.000Z</time>
      </trkpt>
      <trkpt lat="46.03026" lon="4.519">
        <ele>471</ele>
        <time>2019-07-26T07:23:26.000Z</time>
      </trkpt>
      <trkpt lat="46.0302" lon="4.51906">
        <ele>472.39999389648</ele>
        <time>2019-07-26T07:23:28.000Z</time>
      </trkpt>
      <trkpt lat="46.03015" lon="4.51913">
        <ele>473.39999389648</ele>
        <time>2019-07-26T07:23:30.000Z</time>
      </trkpt>
      <trkpt lat="46.03013" lon="4.51917">
        <ele>473.79998779297</ele>
        <time>2019-07-26T07:23:31.000Z</time>
      </trkpt>
      <trkpt lat="46.03009" lon="4.51927">
        <ele>474.60000610352</ele>
        <time>2019-07-26T07:23:33.000Z</time>
      </trkpt>
      <trkpt lat="46.03006" lon="4.51937">
        <ele>475.79998779297</ele>
        <time>2019-07-26T07:23:35.000Z</time>
      </trkpt>
      <trkpt lat="46.03004" lon="4.51953">
        <ele>478.39999389648</ele>
        <time>2019-07-26T07:23:38.000Z</time>
      </trkpt>
      <trkpt lat="46.03003" lon="4.51969">
        <ele>481.39999389648</ele>
        <time>2019-07-26T07:23:41.000Z</time>
      </trkpt>
      <trkpt lat="46.03004" lon="4.5198">
        <ele>483.60000610352</ele>
        <time>2019-07-26T07:23:43.000Z</time>
      </trkpt>
      <trkpt lat="46.03004" lon="4.5199">
        <ele>484.39999389648</ele>
        <time>2019-07-26T07:23:45.000Z</time>
      </trkpt>
      <trkpt lat="46.03005" lon="4.52001">
        <ele>485.60000610352</ele>
        <time>2019-07-26T07:23:47.000Z</time>
      </trkpt>
      <trkpt lat="46.03007" lon="4.52011">
        <ele>487</ele>
        <time>2019-07-26T07:23:49.000Z</time>
      </trkpt>
      <trkpt lat="46.03009" lon="4.52022">
        <ele>488.39999389648</ele>
        <time>2019-07-26T07:23:51.000Z</time>
      </trkpt>
      <trkpt lat="46.03011" lon="4.52031">
        <ele>489.79998779297</ele>
        <time>2019-07-26T07:23:53.000Z</time>
      </trkpt>
      <trkpt lat="46.03014" lon="4.52041">
        <ele>491.39999389648</ele>
        <time>2019-07-26T07:23:55.000Z</time>
      </trkpt>
      <trkpt lat="46.03015" lon="4.52046">
        <ele>492.20001220703</ele>
        <time>2019-07-26T07:23:56.000Z</time>
      </trkpt>
      <trkpt lat="46.03022" lon="4.52075">
        <ele>497.20001220703</ele>
        <time>2019-07-26T07:24:02.000Z</time>
      </trkpt>
      <trkpt lat="46.03028" lon="4.52098">
        <ele>499.60000610352</ele>
        <time>2019-07-26T07:24:07.000Z</time>
      </trkpt>
      <trkpt lat="46.03031" lon="4.52108">
        <ele>500.20001220703</ele>
        <time>2019-07-26T07:24:09.000Z</time>
      </trkpt>
      <trkpt lat="46.03034" lon="4.52122">
        <ele>501.39999389648</ele>
        <time>2019-07-26T07:24:12.000Z</time>
      </trkpt>
      <trkpt lat="46.03039" lon="4.52148">
        <ele>503.79998779297</ele>
        <time>2019-07-26T07:24:17.000Z</time>
      </trkpt>
      <trkpt lat="46.03039" lon="4.52165">
        <ele>503.79998779297</ele>
        <time>2019-07-26T07:24:20.000Z</time>
      </trkpt>
      <trkpt lat="46.03036" lon="4.52182">
        <ele>502.39999389648</ele>
        <time>2019-07-26T07:24:23.000Z</time>
      </trkpt>
      <trkpt lat="46.03035" lon="4.52187">
        <ele>502</ele>
        <time>2019-07-26T07:24:24.000Z</time>
      </trkpt>
      <trkpt lat="46.0303" lon="4.52202">
        <ele>500.20001220703</ele>
        <time>2019-07-26T07:24:27.000Z</time>
      </trkpt>
      <trkpt lat="46.03026" lon="4.52211">
        <ele>499</ele>
        <time>2019-07-26T07:24:29.000Z</time>
      </trkpt>
      <trkpt lat="46.03015" lon="4.52243">
        <ele>497.20001220703</ele>
        <time>2019-07-26T07:24:36.000Z</time>
      </trkpt>
      <trkpt lat="46.03014" lon="4.52248">
        <ele>497.20001220703</ele>
        <time>2019-07-26T07:24:37.000Z</time>
      </trkpt>
      <trkpt lat="46.0301" lon="4.52268">
        <ele>497.39999389648</ele>
        <time>2019-07-26T07:24:41.000Z</time>
      </trkpt>
      <trkpt lat="46.03008" lon="4.52283">
        <ele>498.20001220703</ele>
        <time>2019-07-26T07:24:44.000Z</time>
      </trkpt>
      <trkpt lat="46.03008" lon="4.52314">
        <ele>497.39999389648</ele>
        <time>2019-07-26T07:24:50.000Z</time>
      </trkpt>
      <trkpt lat="46.0301" lon="4.52324">
        <ele>498</ele>
        <time>2019-07-26T07:24:52.000Z</time>
      </trkpt>
      <trkpt lat="46.03019" lon="4.52352">
        <ele>502.60000610352</ele>
        <time>2019-07-26T07:24:58.000Z</time>
      </trkpt>
      <trkpt lat="46.03029" lon="4.52366">
        <ele>507</ele>
        <time>2019-07-26T07:25:02.000Z</time>
      </trkpt>
      <trkpt lat="46.03035" lon="4.52372">
        <ele>508.20001220703</ele>
        <time>2019-07-26T07:25:04.000Z</time>
      </trkpt>
      <trkpt lat="46.03056" lon="4.52392">
        <ele>512</ele>
        <time>2019-07-26T07:25:11.000Z</time>
      </trkpt>
      <trkpt lat="46.03077" lon="4.52412">
        <ele>514.40002441406</ele>
        <time>2019-07-26T07:25:18.000Z</time>
      </trkpt>
      <trkpt lat="46.03093" lon="4.52431">
        <ele>515.20001220703</ele>
        <time>2019-07-26T07:25:24.000Z</time>
      </trkpt>
      <trkpt lat="46.03101" lon="4.5244">
        <ele>515.79998779297</ele>
        <time>2019-07-26T07:25:27.000Z</time>
      </trkpt>
      <trkpt lat="46.03116" lon="4.52461">
        <ele>516.79998779297</ele>
        <time>2019-07-26T07:25:33.000Z</time>
      </trkpt>
      <trkpt lat="46.03118" lon="4.52464">
        <ele>517</ele>
        <time>2019-07-26T07:25:34.000Z</time>
      </trkpt>
      <trkpt lat="46.03123" lon="4.52477">
        <ele>517.20001220703</ele>
        <time>2019-07-26T07:25:37.000Z</time>
      </trkpt>
      <trkpt lat="46.03125" lon="4.52488">
        <ele>516.59997558594</ele>
        <time>2019-07-26T07:25:39.000Z</time>
      </trkpt>
      <trkpt lat="46.03121" lon="4.52507">
        <ele>513.59997558594</ele>
        <time>2019-07-26T07:25:43.000Z</time>
      </trkpt>
      <trkpt lat="46.03112" lon="4.52516">
        <ele>511.79998779297</ele>
        <time>2019-07-26T07:25:46.000Z</time>
      </trkpt>
      <trkpt lat="46.03106" lon="4.52518">
        <ele>510.60000610352</ele>
        <time>2019-07-26T07:25:48.000Z</time>
      </trkpt>
      <trkpt lat="46.03086" lon="4.52518">
        <ele>507.39999389648</ele>
        <time>2019-07-26T07:25:54.000Z</time>
      </trkpt>
      <trkpt lat="46.0308" lon="4.52518">
        <ele>506.39999389648</ele>
        <time>2019-07-26T07:25:56.000Z</time>
      </trkpt>
      <trkpt lat="46.03068" lon="4.52518">
        <ele>504.39999389648</ele>
        <time>2019-07-26T07:26:00.000Z</time>
      </trkpt>
      <trkpt lat="46.03057" lon="4.52522">
        <ele>502.39999389648</ele>
        <time>2019-07-26T07:26:04.000Z</time>
      </trkpt>
      <trkpt lat="46.03042" lon="4.52538">
        <ele>501</ele>
        <time>2019-07-26T07:26:10.000Z</time>
      </trkpt>
      <trkpt lat="46.03036" lon="4.5256">
        <ele>504</ele>
        <time>2019-07-26T07:26:15.000Z</time>
      </trkpt>
      <trkpt lat="46.03035" lon="4.52565">
        <ele>504.60000610352</ele>
        <time>2019-07-26T07:26:16.000Z</time>
      </trkpt>
      <trkpt lat="46.03036" lon="4.52574">
        <ele>506.39999389648</ele>
        <time>2019-07-26T07:26:18.000Z</time>
      </trkpt>
      <trkpt lat="46.03038" lon="4.52598">
        <ele>511</ele>
        <time>2019-07-26T07:26:23.000Z</time>
      </trkpt>
      <trkpt lat="46.0304" lon="4.52617">
        <ele>513</ele>
        <time>2019-07-26T07:26:27.000Z</time>
      </trkpt>
      <trkpt lat="46.03042" lon="4.5264">
        <ele>516.20001220703</ele>
        <time>2019-07-26T07:26:32.000Z</time>
      </trkpt>
      <trkpt lat="46.03043" lon="4.52672">
        <ele>520.20001220703</ele>
        <time>2019-07-26T07:26:39.000Z</time>
      </trkpt>
      <trkpt lat="46.03042" lon="4.52681">
        <ele>521.20001220703</ele>
        <time>2019-07-26T07:26:41.000Z</time>
      </trkpt>
      <trkpt lat="46.03041" lon="4.52715">
        <ele>522.59997558594</ele>
        <time>2019-07-26T07:26:48.000Z</time>
      </trkpt>
      <trkpt lat="46.0304" lon="4.52738">
        <ele>524.40002441406</ele>
        <time>2019-07-26T07:26:53.000Z</time>
      </trkpt>
      <trkpt lat="46.0304" lon="4.52743">
        <ele>524.79998779297</ele>
        <time>2019-07-26T07:26:54.000Z</time>
      </trkpt>
      <trkpt lat="46.03039" lon="4.5277">
        <ele>526.20001220703</ele>
        <time>2019-07-26T07:27:00.000Z</time>
      </trkpt>
      <trkpt lat="46.03038" lon="4.52779">
        <ele>526.20001220703</ele>
        <time>2019-07-26T07:27:02.000Z</time>
      </trkpt>
      <trkpt lat="46.03037" lon="4.52797">
        <ele>526.40002441406</ele>
        <time>2019-07-26T07:27:06.000Z</time>
      </trkpt>
      <trkpt lat="46.03035" lon="4.52823">
        <ele>526.59997558594</ele>
        <time>2019-07-26T07:27:12.000Z</time>
      </trkpt>
      <trkpt lat="46.03034" lon="4.52827">
        <ele>526.59997558594</ele>
        <time>2019-07-26T07:27:13.000Z</time>
      </trkpt>
      <trkpt lat="46.0303" lon="4.52858">
        <ele>527.20001220703</ele>
        <time>2019-07-26T07:27:20.000Z</time>
      </trkpt>
      <trkpt lat="46.03029" lon="4.52863">
        <ele>527.20001220703</ele>
        <time>2019-07-26T07:27:21.000Z</time>
      </trkpt>
      <trkpt lat="46.03026" lon="4.52884">
        <ele>527</ele>
        <time>2019-07-26T07:27:26.000Z</time>
      </trkpt>
      <trkpt lat="46.03025" lon="4.52888">
        <ele>527</ele>
        <time>2019-07-26T07:27:27.000Z</time>
      </trkpt>
      <trkpt lat="46.03023" lon="4.52906">
        <ele>527</ele>
        <time>2019-07-26T07:27:31.000Z</time>
      </trkpt>
      <trkpt lat="46.03022" lon="4.52919">
        <ele>527.79998779297</ele>
        <time>2019-07-26T07:27:34.000Z</time>
      </trkpt>
      <trkpt lat="46.03023" lon="4.52933">
        <ele>529.40002441406</ele>
        <time>2019-07-26T07:27:37.000Z</time>
      </trkpt>
      <trkpt lat="46.03027" lon="4.5295">
        <ele>532.40002441406</ele>
        <time>2019-07-26T07:27:41.000Z</time>
      </trkpt>
      <trkpt lat="46.0303" lon="4.52963">
        <ele>533.20001220703</ele>
        <time>2019-07-26T07:27:44.000Z</time>
      </trkpt>
      <trkpt lat="46.03036" lon="4.52979">
        <ele>534.79998779297</ele>
        <time>2019-07-26T07:27:48.000Z</time>
      </trkpt>
      <trkpt lat="46.0304" lon="4.52987">
        <ele>536</ele>
        <time>2019-07-26T07:27:50.000Z</time>
      </trkpt>
      <trkpt lat="46.03051" lon="4.53005">
        <ele>539.20001220703</ele>
        <time>2019-07-26T07:27:55.000Z</time>
      </trkpt>
      <trkpt lat="46.03058" lon="4.5302">
        <ele>541</ele>
        <time>2019-07-26T07:27:59.000Z</time>
      </trkpt>
      <trkpt lat="46.0306" lon="4.53028">
        <ele>541.40002441406</ele>
        <time>2019-07-26T07:28:01.000Z</time>
      </trkpt>
      <trkpt lat="46.03062" lon="4.53042">
        <ele>542.20001220703</ele>
        <time>2019-07-26T07:28:04.000Z</time>
      </trkpt>
      <trkpt lat="46.03062" lon="4.53053">
        <ele>542.40002441406</ele>
        <time>2019-07-26T07:28:06.000Z</time>
      </trkpt>
      <trkpt lat="46.03062" lon="4.53057">
        <ele>542.20001220703</ele>
        <time>2019-07-26T07:28:07.000Z</time>
      </trkpt>
      <trkpt lat="46.0306" lon="4.53077">
        <ele>540.79998779297</ele>
        <time>2019-07-26T07:28:11.000Z</time>
      </trkpt>
      <trkpt lat="46.03055" lon="4.53089">
        <ele>539</ele>
        <time>2019-07-26T07:28:14.000Z</time>
      </trkpt>
      <trkpt lat="46.03041" lon="4.53119">
        <ele>534.79998779297</ele>
        <time>2019-07-26T07:28:22.000Z</time>
      </trkpt>
      <trkpt lat="46.03025" lon="4.5315">
        <ele>536</ele>
        <time>2019-07-26T07:28:30.000Z</time>
      </trkpt>
      <trkpt lat="46.03009" lon="4.5318">
        <ele>536</ele>
        <time>2019-07-26T07:28:38.000Z</time>
      </trkpt>
      <trkpt lat="46.03" lon="4.53204">
        <ele>536.59997558594</ele>
        <time>2019-07-26T07:28:44.000Z</time>
      </trkpt>
      <trkpt lat="46.02994" lon="4.5322">
        <ele>538</ele>
        <time>2019-07-26T07:28:48.000Z</time>
      </trkpt>
      <trkpt lat="46.02989" lon="4.53243">
        <ele>539.40002441406</ele>
        <time>2019-07-26T07:28:53.000Z</time>
      </trkpt>
      <trkpt lat="46.02987" lon="4.53256">
        <ele>540.59997558594</ele>
        <time>2019-07-26T07:28:56.000Z</time>
      </trkpt>
      <trkpt lat="46.02986" lon="4.5326">
        <ele>541.20001220703</ele>
        <time>2019-07-26T07:28:57.000Z</time>
      </trkpt>
      <trkpt lat="46.02983" lon="4.53302">
        <ele>545.79998779297</ele>
        <time>2019-07-26T07:29:06.000Z</time>
      </trkpt>
      <trkpt lat="46.02983" lon="4.53307">
        <ele>546.20001220703</ele>
        <time>2019-07-26T07:29:07.000Z</time>
      </trkpt>
      <trkpt lat="46.02981" lon="4.5333">
        <ele>547.59997558594</ele>
        <time>2019-07-26T07:29:12.000Z</time>
      </trkpt>
      <trkpt lat="46.0298" lon="4.53348">
        <ele>549</ele>
        <time>2019-07-26T07:29:16.000Z</time>
      </trkpt>
      <trkpt lat="46.0298" lon="4.53366">
        <ele>550.59997558594</ele>
        <time>2019-07-26T07:29:20.000Z</time>
      </trkpt>
      <trkpt lat="46.02978" lon="4.53389">
        <ele>551</ele>
        <time>2019-07-26T07:29:25.000Z</time>
      </trkpt>
      <trkpt lat="46.02978" lon="4.53398">
        <ele>551</ele>
        <time>2019-07-26T07:29:27.000Z</time>
      </trkpt>
      <trkpt lat="46.02977" lon="4.53403">
        <ele>551</ele>
        <time>2019-07-26T07:29:28.000Z</time>
      </trkpt>
      <trkpt lat="46.02977" lon="4.53422">
        <ele>551.40002441406</ele>
        <time>2019-07-26T07:29:32.000Z</time>
      </trkpt>
      <trkpt lat="46.02977" lon="4.53436">
        <ele>552</ele>
        <time>2019-07-26T07:29:35.000Z</time>
      </trkpt>
      <trkpt lat="46.02977" lon="4.53446">
        <ele>552.40002441406</ele>
        <time>2019-07-26T07:29:37.000Z</time>
      </trkpt>
      <trkpt lat="46.02978" lon="4.53464">
        <ele>552.40002441406</ele>
        <time>2019-07-26T07:29:41.000Z</time>
      </trkpt>
      <trkpt lat="46.0298" lon="4.53473">
        <ele>552.40002441406</ele>
        <time>2019-07-26T07:29:43.000Z</time>
      </trkpt>
      <trkpt lat="46.02984" lon="4.53493">
        <ele>553</ele>
        <time>2019-07-26T07:29:48.000Z</time>
      </trkpt>
      <trkpt lat="46.02985" lon="4.53497">
        <ele>553.40002441406</ele>
        <time>2019-07-26T07:29:49.000Z</time>
      </trkpt>
      <trkpt lat="46.03" lon="4.53521">
        <ele>557.59997558594</ele>
        <time>2019-07-26T07:29:56.000Z</time>
      </trkpt>
      <trkpt lat="46.03004" lon="4.53527">
        <ele>559</ele>
        <time>2019-07-26T07:29:58.000Z</time>
      </trkpt>
      <trkpt lat="46.03015" lon="4.53539">
        <ele>562</ele>
        <time>2019-07-26T07:30:02.000Z</time>
      </trkpt>
      <trkpt lat="46.0302" lon="4.53544">
        <ele>563.20001220703</ele>
        <time>2019-07-26T07:30:04.000Z</time>
      </trkpt>
      <trkpt lat="46.03033" lon="4.53558">
        <ele>566.40002441406</ele>
        <time>2019-07-26T07:30:09.000Z</time>
      </trkpt>
      <trkpt lat="46.03039" lon="4.53569">
        <ele>567.20001220703</ele>
        <time>2019-07-26T07:30:12.000Z</time>
      </trkpt>
      <trkpt lat="46.03042" lon="4.53581">
        <ele>567.20001220703</ele>
        <time>2019-07-26T07:30:15.000Z</time>
      </trkpt>
      <trkpt lat="46.03044" lon="4.53589">
        <ele>566.79998779297</ele>
        <time>2019-07-26T07:30:17.000Z</time>
      </trkpt>
      <trkpt lat="46.03046" lon="4.53603">
        <ele>566</ele>
        <time>2019-07-26T07:30:20.000Z</time>
      </trkpt>
      <trkpt lat="46.03048" lon="4.53628">
        <ele>564.59997558594</ele>
        <time>2019-07-26T07:30:25.000Z</time>
      </trkpt>
      <trkpt lat="46.03046" lon="4.5366">
        <ele>563.59997558594</ele>
        <time>2019-07-26T07:30:32.000Z</time>
      </trkpt>
      <trkpt lat="46.03038" lon="4.53691">
        <ele>561</ele>
        <time>2019-07-26T07:30:39.000Z</time>
      </trkpt>
      <trkpt lat="46.0303" lon="4.5372">
        <ele>560</ele>
        <time>2019-07-26T07:30:46.000Z</time>
      </trkpt>
      <trkpt lat="46.03021" lon="4.53749">
        <ele>559.40002441406</ele>
        <time>2019-07-26T07:30:53.000Z</time>
      </trkpt>
      <trkpt lat="46.0302" lon="4.53753">
        <ele>559.59997558594</ele>
        <time>2019-07-26T07:30:54.000Z</time>
      </trkpt>
      <trkpt lat="46.03018" lon="4.53767">
        <ele>560.59997558594</ele>
        <time>2019-07-26T07:30:57.000Z</time>
      </trkpt>
      <trkpt lat="46.03014" lon="4.5379">
        <ele>562</ele>
        <time>2019-07-26T07:31:02.000Z</time>
      </trkpt>
      <trkpt lat="46.03014" lon="4.53804">
        <ele>562.79998779297</ele>
        <time>2019-07-26T07:31:05.000Z</time>
      </trkpt>
      <trkpt lat="46.03015" lon="4.53818">
        <ele>564</ele>
        <time>2019-07-26T07:31:08.000Z</time>
      </trkpt>
      <trkpt lat="46.03016" lon="4.53823">
        <ele>564.40002441406</ele>
        <time>2019-07-26T07:31:09.000Z</time>
      </trkpt>
      <trkpt lat="46.03024" lon="4.53858">
        <ele>567.79998779297</ele>
        <time>2019-07-26T07:31:17.000Z</time>
      </trkpt>
      <trkpt lat="46.03028" lon="4.53871">
        <ele>569.20001220703</ele>
        <time>2019-07-26T07:31:20.000Z</time>
      </trkpt>
      <trkpt lat="46.03035" lon="4.53892">
        <ele>570.40002441406</ele>
        <time>2019-07-26T07:31:25.000Z</time>
      </trkpt>
      <trkpt lat="46.03039" lon="4.53905">
        <ele>571</ele>
        <time>2019-07-26T07:31:28.000Z</time>
      </trkpt>
      <trkpt lat="46.03048" lon="4.53929">
        <ele>572.59997558594</ele>
        <time>2019-07-26T07:31:34.000Z</time>
      </trkpt>
      <trkpt lat="46.03052" lon="4.53946">
        <ele>573</ele>
        <time>2019-07-26T07:31:38.000Z</time>
      </trkpt>
      <trkpt lat="46.03053" lon="4.5395">
        <ele>573.20001220703</ele>
        <time>2019-07-26T07:31:39.000Z</time>
      </trkpt>
      <trkpt lat="46.03056" lon="4.53958">
        <ele>573.40002441406</ele>
        <time>2019-07-26T07:31:41.000Z</time>
      </trkpt>
      <trkpt lat="46.03063" lon="4.53978">
        <ele>572.40002441406</ele>
        <time>2019-07-26T07:31:46.000Z</time>
      </trkpt>
      <trkpt lat="46.03066" lon="4.53986">
        <ele>571.79998779297</ele>
        <time>2019-07-26T07:31:48.000Z</time>
      </trkpt>
      <trkpt lat="46.03071" lon="4.53997">
        <ele>571.20001220703</ele>
        <time>2019-07-26T07:31:51.000Z</time>
      </trkpt>
      <trkpt lat="46.03078" lon="4.54011">
        <ele>570.40002441406</ele>
        <time>2019-07-26T07:31:55.000Z</time>
      </trkpt>
      <trkpt lat="46.03082" lon="4.54017">
        <ele>570</ele>
        <time>2019-07-26T07:31:57.000Z</time>
      </trkpt>
      <trkpt lat="46.03094" lon="4.54025">
        <ele>570.20001220703</ele>
        <time>2019-07-26T07:32:01.000Z</time>
      </trkpt>
      <trkpt lat="46.031" lon="4.54027">
        <ele>570.59997558594</ele>
        <time>2019-07-26T07:32:03.000Z</time>
      </trkpt>
      <trkpt lat="46.03109" lon="4.54025">
        <ele>571.79998779297</ele>
        <time>2019-07-26T07:32:06.000Z</time>
      </trkpt>
      <trkpt lat="46.0313" lon="4.54013">
        <ele>575.59997558594</ele>
        <time>2019-07-26T07:32:13.000Z</time>
      </trkpt>
      <trkpt lat="46.0315" lon="4.5399">
        <ele>582.20001220703</ele>
        <time>2019-07-26T07:32:21.000Z</time>
      </trkpt>
      <trkpt lat="46.03165" lon="4.53973">
        <ele>586.40002441406</ele>
        <time>2019-07-26T07:32:28.000Z</time>
      </trkpt>
      <trkpt lat="46.03179" lon="4.53961">
        <ele>590</ele>
        <time>2019-07-26T07:32:34.000Z</time>
      </trkpt>
      <trkpt lat="46.03198" lon="4.53957">
        <ele>593</ele>
        <time>2019-07-26T07:32:39.000Z</time>
      </trkpt>
      <trkpt lat="46.03205" lon="4.53958">
        <ele>593.40002441406</ele>
        <time>2019-07-26T07:32:41.000Z</time>
      </trkpt>
      <trkpt lat="46.03214" lon="4.53964">
        <ele>593.40002441406</ele>
        <time>2019-07-26T07:32:44.000Z</time>
      </trkpt>
      <trkpt lat="46.03217" lon="4.53966">
        <ele>593.20001220703</ele>
        <time>2019-07-26T07:32:45.000Z</time>
      </trkpt>
      <trkpt lat="46.03221" lon="4.53971">
        <ele>592.79998779297</ele>
        <time>2019-07-26T07:32:47.000Z</time>
      </trkpt>
      <trkpt lat="46.03229" lon="4.53981">
        <ele>592.59997558594</ele>
        <time>2019-07-26T07:32:50.000Z</time>
      </trkpt>
      <trkpt lat="46.03231" lon="4.53984">
        <ele>592.79998779297</ele>
        <time>2019-07-26T07:32:51.000Z</time>
      </trkpt>
      <trkpt lat="46.03238" lon="4.54001">
        <ele>592</ele>
        <time>2019-07-26T07:32:55.000Z</time>
      </trkpt>
      <trkpt lat="46.03239" lon="4.5401">
        <ele>591</ele>
        <time>2019-07-26T07:32:57.000Z</time>
      </trkpt>
      <trkpt lat="46.0324" lon="4.54019">
        <ele>589.59997558594</ele>
        <time>2019-07-26T07:32:59.000Z</time>
      </trkpt>
      <trkpt lat="46.03236" lon="4.54036">
        <ele>585.59997558594</ele>
        <time>2019-07-26T07:33:03.000Z</time>
      </trkpt>
      <trkpt lat="46.03234" lon="4.54041">
        <ele>585.40002441406</ele>
        <time>2019-07-26T07:33:04.000Z</time>
      </trkpt>
      <trkpt lat="46.0323" lon="4.54053">
        <ele>585.40002441406</ele>
        <time>2019-07-26T07:33:07.000Z</time>
      </trkpt>
      <trkpt lat="46.03226" lon="4.54065">
        <ele>585.40002441406</ele>
        <time>2019-07-26T07:33:10.000Z</time>
      </trkpt>
      <trkpt lat="46.03219" lon="4.54081">
        <ele>586.40002441406</ele>
        <time>2019-07-26T07:33:14.000Z</time>
      </trkpt>
      <trkpt lat="46.03215" lon="4.5409">
        <ele>587</ele>
        <time>2019-07-26T07:33:16.000Z</time>
      </trkpt>
      <trkpt lat="46.03212" lon="4.54098">
        <ele>587.59997558594</ele>
        <time>2019-07-26T07:33:18.000Z</time>
      </trkpt>
      <trkpt lat="46.03205" lon="4.54124">
        <ele>586.40002441406</ele>
        <time>2019-07-26T07:33:24.000Z</time>
      </trkpt>
      <trkpt lat="46.03201" lon="4.54141">
        <ele>587.59997558594</ele>
        <time>2019-07-26T07:33:28.000Z</time>
      </trkpt>
      <trkpt lat="46.03198" lon="4.54149">
        <ele>588.40002441406</ele>
        <time>2019-07-26T07:33:30.000Z</time>
      </trkpt>
      <trkpt lat="46.03192" lon="4.54176">
        <ele>590</ele>
        <time>2019-07-26T07:33:36.000Z</time>
      </trkpt>
      <trkpt lat="46.0319" lon="4.54185">
        <ele>590</ele>
        <time>2019-07-26T07:33:38.000Z</time>
      </trkpt>
      <trkpt lat="46.03189" lon="4.54194">
        <ele>590</ele>
        <time>2019-07-26T07:33:40.000Z</time>
      </trkpt>
      <trkpt lat="46.03186" lon="4.5422">
        <ele>590.59997558594</ele>
        <time>2019-07-26T07:33:46.000Z</time>
      </trkpt>
      <trkpt lat="46.03185" lon="4.54232">
        <ele>591.20001220703</ele>
        <time>2019-07-26T07:33:49.000Z</time>
      </trkpt>
      <trkpt lat="46.03185" lon="4.54245">
        <ele>591.79998779297</ele>
        <time>2019-07-26T07:33:52.000Z</time>
      </trkpt>
      <trkpt lat="46.03185" lon="4.54254">
        <ele>592.20001220703</ele>
        <time>2019-07-26T07:33:54.000Z</time>
      </trkpt>
      <trkpt lat="46.03185" lon="4.54263">
        <ele>592.79998779297</ele>
        <time>2019-07-26T07:33:56.000Z</time>
      </trkpt>
      <trkpt lat="46.03186" lon="4.54286">
        <ele>594.20001220703</ele>
        <time>2019-07-26T07:34:01.000Z</time>
      </trkpt>
      <trkpt lat="46.03186" lon="4.5429">
        <ele>594.20001220703</ele>
        <time>2019-07-26T07:34:02.000Z</time>
      </trkpt>
      <trkpt lat="46.03188" lon="4.54312">
        <ele>595.20001220703</ele>
        <time>2019-07-26T07:34:07.000Z</time>
      </trkpt>
      <trkpt lat="46.0319" lon="4.54321">
        <ele>595.79998779297</ele>
        <time>2019-07-26T07:34:09.000Z</time>
      </trkpt>
      <trkpt lat="46.03191" lon="4.54329">
        <ele>596.40002441406</ele>
        <time>2019-07-26T07:34:11.000Z</time>
      </trkpt>
      <trkpt lat="46.03197" lon="4.5435">
        <ele>598.79998779297</ele>
        <time>2019-07-26T07:34:16.000Z</time>
      </trkpt>
      <trkpt lat="46.03206" lon="4.54373">
        <ele>601.79998779297</ele>
        <time>2019-07-26T07:34:22.000Z</time>
      </trkpt>
      <trkpt lat="46.03219" lon="4.54394">
        <ele>603.20001220703</ele>
        <time>2019-07-26T07:34:28.000Z</time>
      </trkpt>
      <trkpt lat="46.03238" lon="4.54412">
        <ele>605.79998779297</ele>
        <time>2019-07-26T07:34:36.000Z</time>
      </trkpt>
      <trkpt lat="46.03248" lon="4.5442">
        <ele>606.79998779297</ele>
        <time>2019-07-26T07:34:40.000Z</time>
      </trkpt>
      <trkpt lat="46.0325" lon="4.54423">
        <ele>607</ele>
        <time>2019-07-26T07:34:41.000Z</time>
      </trkpt>
      <trkpt lat="46.03262" lon="4.54432">
        <ele>608.20001220703</ele>
        <time>2019-07-26T07:34:45.000Z</time>
      </trkpt>
      <trkpt lat="46.03269" lon="4.54436">
        <ele>609.20001220703</ele>
        <time>2019-07-26T07:34:48.000Z</time>
      </trkpt>
      <trkpt lat="46.03274" lon="4.5444">
        <ele>609.79998779297</ele>
        <time>2019-07-26T07:34:50.000Z</time>
      </trkpt>
      <trkpt lat="46.0328" lon="4.54444">
        <ele>610.40002441406</ele>
        <time>2019-07-26T07:34:52.000Z</time>
      </trkpt>
      <trkpt lat="46.03295" lon="4.5445">
        <ele>612.79998779297</ele>
        <time>2019-07-26T07:34:56.000Z</time>
      </trkpt>
      <trkpt lat="46.03311" lon="4.54454">
        <ele>615.20001220703</ele>
        <time>2019-07-26T07:35:01.000Z</time>
      </trkpt>
      <trkpt lat="46.03321" lon="4.54455">
        <ele>614.40002441406</ele>
        <time>2019-07-26T07:35:04.000Z</time>
      </trkpt>
      <trkpt lat="46.0333" lon="4.54454">
        <ele>614</ele>
        <time>2019-07-26T07:35:07.000Z</time>
      </trkpt>
      <trkpt lat="46.03351" lon="4.54453">
        <ele>613.20001220703</ele>
        <time>2019-07-26T07:35:13.000Z</time>
      </trkpt>
      <trkpt lat="46.03364" lon="4.54451">
        <ele>612.79998779297</ele>
        <time>2019-07-26T07:35:17.000Z</time>
      </trkpt>
      <trkpt lat="46.0337" lon="4.54449">
        <ele>612.59997558594</ele>
        <time>2019-07-26T07:35:19.000Z</time>
      </trkpt>
      <trkpt lat="46.03394" lon="4.54445">
        <ele>612.40002441406</ele>
        <time>2019-07-26T07:35:27.000Z</time>
      </trkpt>
      <trkpt lat="46.0341" lon="4.54444">
        <ele>612.79998779297</ele>
        <time>2019-07-26T07:35:32.000Z</time>
      </trkpt>
      <trkpt lat="46.03413" lon="4.54443">
        <ele>612.79998779297</ele>
        <time>2019-07-26T07:35:33.000Z</time>
      </trkpt>
      <trkpt lat="46.03436" lon="4.54441">
        <ele>613.59997558594</ele>
        <time>2019-07-26T07:35:40.000Z</time>
      </trkpt>
      <trkpt lat="46.0344" lon="4.5444">
        <ele>613.79998779297</ele>
        <time>2019-07-26T07:35:41.000Z</time>
      </trkpt>
      <trkpt lat="46.03452" lon="4.54438">
        <ele>614.20001220703</ele>
        <time>2019-07-26T07:35:45.000Z</time>
      </trkpt>
      <trkpt lat="46.03461" lon="4.54436">
        <ele>614.59997558594</ele>
        <time>2019-07-26T07:35:48.000Z</time>
      </trkpt>
      <trkpt lat="46.03476" lon="4.54429">
        <ele>614</ele>
        <time>2019-07-26T07:35:53.000Z</time>
      </trkpt>
      <trkpt lat="46.03484" lon="4.54422">
        <ele>615.79998779297</ele>
        <time>2019-07-26T07:35:56.000Z</time>
      </trkpt>
      <trkpt lat="46.03495" lon="4.54414">
        <ele>618</ele>
        <time>2019-07-26T07:36:00.000Z</time>
      </trkpt>
      <trkpt lat="46.03507" lon="4.54407">
        <ele>620.20001220703</ele>
        <time>2019-07-26T07:36:04.000Z</time>
      </trkpt>
      <trkpt lat="46.03514" lon="4.54405">
        <ele>621.20001220703</ele>
        <time>2019-07-26T07:36:06.000Z</time>
      </trkpt>
      <trkpt lat="46.03533" lon="4.54408">
        <ele>623.79998779297</ele>
        <time>2019-07-26T07:36:12.000Z</time>
      </trkpt>
      <trkpt lat="46.03545" lon="4.54414">
        <ele>624.40002441406</ele>
        <time>2019-07-26T07:36:16.000Z</time>
      </trkpt>
      <trkpt lat="46.03551" lon="4.54418">
        <ele>624.59997558594</ele>
        <time>2019-07-26T07:36:18.000Z</time>
      </trkpt>
      <trkpt lat="46.03559" lon="4.54422">
        <ele>625.20001220703</ele>
        <time>2019-07-26T07:36:21.000Z</time>
      </trkpt>
      <trkpt lat="46.03568" lon="4.54425">
        <ele>625.59997558594</ele>
        <time>2019-07-26T07:36:24.000Z</time>
      </trkpt>
      <trkpt lat="46.03571" lon="4.54427">
        <ele>625.59997558594</ele>
        <time>2019-07-26T07:36:25.000Z</time>
      </trkpt>
      <trkpt lat="46.0358" lon="4.5443">
        <ele>626</ele>
        <time>2019-07-26T07:36:28.000Z</time>
      </trkpt>
      <trkpt lat="46.03592" lon="4.54434">
        <ele>626.59997558594</ele>
        <time>2019-07-26T07:36:32.000Z</time>
      </trkpt>
      <trkpt lat="46.03604" lon="4.54441">
        <ele>626.79998779297</ele>
        <time>2019-07-26T07:36:36.000Z</time>
      </trkpt>
      <trkpt lat="46.03609" lon="4.54446">
        <ele>626.40002441406</ele>
        <time>2019-07-26T07:36:38.000Z</time>
      </trkpt>
      <trkpt lat="46.03614" lon="4.54453">
        <ele>626</ele>
        <time>2019-07-26T07:36:40.000Z</time>
      </trkpt>
      <trkpt lat="46.03617" lon="4.54467">
        <ele>626.20001220703</ele>
        <time>2019-07-26T07:36:43.000Z</time>
      </trkpt>
      <trkpt lat="46.03614" lon="4.54489">
        <ele>626</ele>
        <time>2019-07-26T07:36:48.000Z</time>
      </trkpt>
      <trkpt lat="46.03612" lon="4.54497">
        <ele>625.59997558594</ele>
        <time>2019-07-26T07:36:50.000Z</time>
      </trkpt>
      <trkpt lat="46.03604" lon="4.54512">
        <ele>623.79998779297</ele>
        <time>2019-07-26T07:36:54.000Z</time>
      </trkpt>
      <trkpt lat="46.03589" lon="4.54531">
        <ele>620.20001220703</ele>
        <time>2019-07-26T07:37:00.000Z</time>
      </trkpt>
      <trkpt lat="46.03573" lon="4.54545">
        <ele>619.59997558594</ele>
        <time>2019-07-26T07:37:06.000Z</time>
      </trkpt>
      <trkpt lat="46.0356" lon="4.54555">
        <ele>619.20001220703</ele>
        <time>2019-07-26T07:37:11.000Z</time>
      </trkpt>
      <trkpt lat="46.03552" lon="4.54562">
        <ele>619.20001220703</ele>
        <time>2019-07-26T07:37:14.000Z</time>
      </trkpt>
      <trkpt lat="46.03549" lon="4.54563">
        <ele>619.20001220703</ele>
        <time>2019-07-26T07:37:15.000Z</time>
      </trkpt>
      <trkpt lat="46.03534" lon="4.54576">
        <ele>619.59997558594</ele>
        <time>2019-07-26T07:37:21.000Z</time>
      </trkpt>
      <trkpt lat="46.03532" lon="4.54579">
        <ele>619.59997558594</ele>
        <time>2019-07-26T07:37:22.000Z</time>
      </trkpt>
      <trkpt lat="46.03509" lon="4.54599">
        <ele>621</ele>
        <time>2019-07-26T07:37:31.000Z</time>
      </trkpt>
      <trkpt lat="46.03493" lon="4.54613">
        <ele>622</ele>
        <time>2019-07-26T07:37:37.000Z</time>
      </trkpt>
      <trkpt lat="46.03481" lon="4.5462">
        <ele>622.40002441406</ele>
        <time>2019-07-26T07:37:41.000Z</time>
      </trkpt>
      <trkpt lat="46.0347" lon="4.54627">
        <ele>623.40002441406</ele>
        <time>2019-07-26T07:37:45.000Z</time>
      </trkpt>
      <trkpt lat="46.03452" lon="4.5464">
        <ele>624.40002441406</ele>
        <time>2019-07-26T07:37:52.000Z</time>
      </trkpt>
      <trkpt lat="46.03436" lon="4.54653">
        <ele>626.20001220703</ele>
        <time>2019-07-26T07:37:58.000Z</time>
      </trkpt>
      <trkpt lat="46.03413" lon="4.54671">
        <ele>626.79998779297</ele>
        <time>2019-07-26T07:38:06.000Z</time>
      </trkpt>
      <trkpt lat="46.03398" lon="4.54686">
        <ele>627.79998779297</ele>
        <time>2019-07-26T07:38:12.000Z</time>
      </trkpt>
      <trkpt lat="46.03385" lon="4.54701">
        <ele>629.59997558594</ele>
        <time>2019-07-26T07:38:17.000Z</time>
      </trkpt>
      <trkpt lat="46.03372" lon="4.54716">
        <ele>631.40002441406</ele>
        <time>2019-07-26T07:38:22.000Z</time>
      </trkpt>
      <trkpt lat="46.03355" lon="4.54741">
        <ele>635.20001220703</ele>
        <time>2019-07-26T07:38:30.000Z</time>
      </trkpt>
      <trkpt lat="46.03344" lon="4.54756">
        <ele>636.40002441406</ele>
        <time>2019-07-26T07:38:35.000Z</time>
      </trkpt>
      <trkpt lat="46.03338" lon="4.54765">
        <ele>637</ele>
        <time>2019-07-26T07:38:38.000Z</time>
      </trkpt>
      <trkpt lat="46.03333" lon="4.54775">
        <ele>638.20001220703</ele>
        <time>2019-07-26T07:38:41.000Z</time>
      </trkpt>
      <trkpt lat="46.0333" lon="4.54781">
        <ele>638.59997558594</ele>
        <time>2019-07-26T07:38:43.000Z</time>
      </trkpt>
      <trkpt lat="46.03329" lon="4.54785">
        <ele>639.20001220703</ele>
        <time>2019-07-26T07:38:44.000Z</time>
      </trkpt>
      <trkpt lat="46.03327" lon="4.54788">
        <ele>639.59997558594</ele>
        <time>2019-07-26T07:38:45.000Z</time>
      </trkpt>
      <trkpt lat="46.03325" lon="4.54795">
        <ele>640.79998779297</ele>
        <time>2019-07-26T07:38:47.000Z</time>
      </trkpt>
      <trkpt lat="46.03316" lon="4.54811">
        <ele>641.40002441406</ele>
        <time>2019-07-26T07:38:52.000Z</time>
      </trkpt>
      <trkpt lat="46.03313" lon="4.54814">
        <ele>641.40002441406</ele>
        <time>2019-07-26T07:38:53.000Z</time>
      </trkpt>
      <trkpt lat="46.03311" lon="4.54817">
        <ele>641.40002441406</ele>
        <time>2019-07-26T07:38:54.000Z</time>
      </trkpt>
      <trkpt lat="46.03309" lon="4.54821">
        <ele>641.40002441406</ele>
        <time>2019-07-26T07:38:55.000Z</time>
      </trkpt>
      <trkpt lat="46.03306" lon="4.54824">
        <ele>641.59997558594</ele>
        <time>2019-07-26T07:38:56.000Z</time>
      </trkpt>
      <trkpt lat="46.03304" lon="4.54827">
        <ele>642</ele>
        <time>2019-07-26T07:38:57.000Z</time>
      </trkpt>
      <trkpt lat="46.03301" lon="4.54831">
        <ele>642.20001220703</ele>
        <time>2019-07-26T07:38:58.000Z</time>
      </trkpt>
      <trkpt lat="46.03299" lon="4.54834">
        <ele>642.40002441406</ele>
        <time>2019-07-26T07:38:59.000Z</time>
      </trkpt>
      <trkpt lat="46.03296" lon="4.54837">
        <ele>642.59997558594</ele>
        <time>2019-07-26T07:39:00.000Z</time>
      </trkpt>
      <trkpt lat="46.03293" lon="4.54841">
        <ele>642.59997558594</ele>
        <time>2019-07-26T07:39:01.000Z</time>
      </trkpt>
      <trkpt lat="46.03288" lon="4.54846">
        <ele>642.79998779297</ele>
        <time>2019-07-26T07:39:03.000Z</time>
      </trkpt>
      <trkpt lat="46.03282" lon="4.54853">
        <ele>643</ele>
        <time>2019-07-26T07:39:05.000Z</time>
      </trkpt>
      <trkpt lat="46.0328" lon="4.54856">
        <ele>642.79998779297</ele>
        <time>2019-07-26T07:39:06.000Z</time>
      </trkpt>
      <trkpt lat="46.03277" lon="4.54858">
        <ele>642.79998779297</ele>
        <time>2019-07-26T07:39:07.000Z</time>
      </trkpt>
      <trkpt lat="46.03271" lon="4.54865">
        <ele>642.79998779297</ele>
        <time>2019-07-26T07:39:09.000Z</time>
      </trkpt>
      <trkpt lat="46.03265" lon="4.5487">
        <ele>642.59997558594</ele>
        <time>2019-07-26T07:39:11.000Z</time>
      </trkpt>
      <trkpt lat="46.03262" lon="4.54873">
        <ele>642.40002441406</ele>
        <time>2019-07-26T07:39:12.000Z</time>
      </trkpt>
      <trkpt lat="46.03259" lon="4.54876">
        <ele>642.20001220703</ele>
        <time>2019-07-26T07:39:13.000Z</time>
      </trkpt>
      <trkpt lat="46.03256" lon="4.54879">
        <ele>642</ele>
        <time>2019-07-26T07:39:14.000Z</time>
      </trkpt>
      <trkpt lat="46.03252" lon="4.54881">
        <ele>641.59997558594</ele>
        <time>2019-07-26T07:39:15.000Z</time>
      </trkpt>
      <trkpt lat="46.03243" lon="4.54888">
        <ele>641</ele>
        <time>2019-07-26T07:39:18.000Z</time>
      </trkpt>
      <trkpt lat="46.03236" lon="4.54894">
        <ele>640</ele>
        <time>2019-07-26T07:39:20.000Z</time>
      </trkpt>
      <trkpt lat="46.0323" lon="4.54899">
        <ele>639.20001220703</ele>
        <time>2019-07-26T07:39:22.000Z</time>
      </trkpt>
      <trkpt lat="46.03221" lon="4.54906">
        <ele>638.59997558594</ele>
        <time>2019-07-26T07:39:25.000Z</time>
      </trkpt>
      <trkpt lat="46.03209" lon="4.54916">
        <ele>638.40002441406</ele>
        <time>2019-07-26T07:39:29.000Z</time>
      </trkpt>
      <trkpt lat="46.03197" lon="4.54926">
        <ele>638.20001220703</ele>
        <time>2019-07-26T07:39:33.000Z</time>
      </trkpt>
      <trkpt lat="46.03186" lon="4.54936">
        <ele>637.59997558594</ele>
        <time>2019-07-26T07:39:37.000Z</time>
      </trkpt>
      <trkpt lat="46.03181" lon="4.54941">
        <ele>637.59997558594</ele>
        <time>2019-07-26T07:39:39.000Z</time>
      </trkpt>
      <trkpt lat="46.03172" lon="4.54955">
        <ele>637.79998779297</ele>
        <time>2019-07-26T07:39:43.000Z</time>
      </trkpt>
      <trkpt lat="46.03167" lon="4.54967">
        <ele>638.59997558594</ele>
        <time>2019-07-26T07:39:46.000Z</time>
      </trkpt>
      <trkpt lat="46.03162" lon="4.54984">
        <ele>640.20001220703</ele>
        <time>2019-07-26T07:39:50.000Z</time>
      </trkpt>
      <trkpt lat="46.03161" lon="4.54993">
        <ele>641.20001220703</ele>
        <time>2019-07-26T07:39:52.000Z</time>
      </trkpt>
      <trkpt lat="46.03161" lon="4.55021">
        <ele>645</ele>
        <time>2019-07-26T07:39:58.000Z</time>
      </trkpt>
      <trkpt lat="46.03162" lon="4.5503">
        <ele>646.40002441406</ele>
        <time>2019-07-26T07:40:00.000Z</time>
      </trkpt>
      <trkpt lat="46.03166" lon="4.55054">
        <ele>649.40002441406</ele>
        <time>2019-07-26T07:40:05.000Z</time>
      </trkpt>
      <trkpt lat="46.03167" lon="4.55062">
        <ele>650.40002441406</ele>
        <time>2019-07-26T07:40:07.000Z</time>
      </trkpt>
      <trkpt lat="46.03171" lon="4.55086">
        <ele>651.79998779297</ele>
        <time>2019-07-26T07:40:12.000Z</time>
      </trkpt>
      <trkpt lat="46.03175" lon="4.551">
        <ele>653</ele>
        <time>2019-07-26T07:40:15.000Z</time>
      </trkpt>
      <trkpt lat="46.03178" lon="4.55116">
        <ele>654</ele>
        <time>2019-07-26T07:40:18.000Z</time>
      </trkpt>
      <trkpt lat="46.03178" lon="4.55121">
        <ele>654.40002441406</ele>
        <time>2019-07-26T07:40:19.000Z</time>
      </trkpt>
      <trkpt lat="46.03183" lon="4.55154">
        <ele>656.59997558594</ele>
        <time>2019-07-26T07:40:26.000Z</time>
      </trkpt>
      <trkpt lat="46.03184" lon="4.55158">
        <ele>657</ele>
        <time>2019-07-26T07:40:27.000Z</time>
      </trkpt>
      <trkpt lat="46.03183" lon="4.55187">
        <ele>657.40002441406</ele>
        <time>2019-07-26T07:40:33.000Z</time>
      </trkpt>
      <trkpt lat="46.03183" lon="4.55192">
        <ele>657.40002441406</ele>
        <time>2019-07-26T07:40:34.000Z</time>
      </trkpt>
      <trkpt lat="46.0318" lon="4.55212">
        <ele>656.59997558594</ele>
        <time>2019-07-26T07:40:38.000Z</time>
      </trkpt>
      <trkpt lat="46.03176" lon="4.5523">
        <ele>655</ele>
        <time>2019-07-26T07:40:42.000Z</time>
      </trkpt>
      <trkpt lat="46.03171" lon="4.55247">
        <ele>655.40002441406</ele>
        <time>2019-07-26T07:40:46.000Z</time>
      </trkpt>
      <trkpt lat="46.03169" lon="4.55261">
        <ele>656.20001220703</ele>
        <time>2019-07-26T07:40:49.000Z</time>
      </trkpt>
    </trkseg>
  </trk>
</gpx>